createdAt,value
2019-05-02T00:00:17.217Z,7.75
2019-05-02T00:02:44.066Z,7.74
2019-05-02T00:07:49.522Z,7.69
2019-05-02T00:10:30.346Z,7.67
2019-05-02T00:12:51.375Z,7.65
2019-05-02T00:15:18.049Z,7.62
2019-05-02T00:17:44.653Z,7.59
2019-05-02T00:20:25.938Z,7.55
2019-05-02T00:22:52.212Z,7.52
2019-05-02T00:25:26.001Z,7.52
2019-05-02T00:27:52.602Z,7.49
2019-05-02T00:30:19.322Z,7.49
2019-05-02T00:32:46.025Z,7.47
2019-05-02T00:35:12.678Z,7.46
2019-05-02T00:37:39.389Z,7.43
2019-05-02T00:40:06.052Z,7.40
2019-05-02T00:42:32.662Z,7.38
2019-05-02T00:44:59.283Z,7.35
2019-05-02T00:50:11.311Z,7.29
2019-05-02T00:52:45.059Z,7.29
2019-05-02T00:55:11.697Z,7.27
2019-05-02T00:57:38.309Z,7.23
2019-05-02T01:00:04.933Z,7.21
2019-05-02T01:05:15.113Z,7.12
2019-05-02T01:07:41.806Z,7.12
2019-05-02T01:10:08.536Z,7.13
2019-05-02T01:12:35.159Z,7.15
2019-05-02T01:15:03.234Z,7.13
2019-05-02T01:17:36.707Z,7.09
2019-05-02T01:20:03.968Z,7.06
2019-05-02T01:22:30.674Z,7.03
2019-05-02T01:24:57.280Z,7.02
2019-05-02T01:27:43.377Z,6.97
2019-05-02T01:30:29.484Z,6.92
2019-05-02T01:33:15.766Z,6.87
2019-05-02T01:38:47.867Z,6.85
2019-05-02T01:41:14.475Z,6.83
2019-05-02T01:43:41.106Z,6.81
2019-05-02T01:46:07.815Z,6.79
2019-05-02T01:48:34.436Z,6.76
2019-05-02T01:51:04.395Z,6.72
2019-05-02T01:53:36.028Z,6.69
2019-05-02T01:56:02.633Z,6.65
2019-05-02T01:58:29.258Z,6.63
2019-05-02T02:00:55.955Z,6.59
2019-05-02T02:03:22.549Z,6.55
2019-05-02T02:05:49.174Z,6.51
2019-05-02T02:08:15.872Z,6.49
2019-05-02T02:10:43.931Z,6.46
2019-05-02T02:13:21.063Z,6.45
2019-05-02T02:15:47.785Z,6.44
2019-05-02T02:21:12.711Z,6.41
2019-05-02T02:23:54.233Z,6.34
2019-05-02T02:26:21.088Z,6.18
2019-05-02T02:28:47.691Z,6.07
2019-05-02T02:31:14.338Z,6.01
2019-05-02T02:33:47.957Z,6.03
2019-05-02T02:36:09.622Z,6.06
2019-05-02T02:38:36.362Z,6.08
2019-05-02T02:41:06.353Z,6.10
2019-05-02T02:43:34.705Z,6.10
2019-05-02T02:46:21.335Z,6.11
2019-05-02T02:48:47.940Z,6.10
2019-05-02T02:51:22.180Z,6.04
2019-05-02T02:53:43.085Z,6.00
2019-05-02T02:56:09.701Z,5.97
2019-05-02T02:58:45.827Z,5.97
2019-05-02T03:01:04.921Z,5.97
2019-05-02T03:03:35.205Z,5.97
2019-05-02T03:06:05.507Z,5.94
2019-05-02T03:08:28.724Z,5.94
2019-05-02T03:10:55.354Z,5.92
2019-05-02T03:14:00.083Z,5.92
2019-05-02T03:16:24.103Z,5.90
2019-05-02T03:18:50.693Z,5.89
2019-05-02T03:21:20.812Z,5.86
2019-05-02T03:23:45.970Z,5.88
2019-05-02T03:26:15.073Z,5.88
2019-05-02T03:28:41.201Z,5.87
2019-05-02T03:31:24.041Z,5.89
2019-05-02T03:33:52.250Z,5.90
2019-05-02T03:36:05.379Z,5.92
2019-05-02T03:38:34.966Z,5.91
2019-05-02T03:41:00.680Z,5.96
2019-05-02T03:43:27.820Z,5.98
2019-05-02T03:45:54.622Z,5.97
2019-05-02T03:48:25.746Z,5.97
2019-05-02T03:50:49.773Z,5.97
2019-05-02T03:53:17.711Z,5.98
2019-05-02T03:55:45.012Z,5.98
2019-05-02T03:58:14.183Z,5.96
2019-05-02T04:00:40.174Z,5.97
2019-05-02T04:03:06.923Z,5.95
2019-05-02T04:05:39.852Z,5.92
2019-05-02T04:08:03.233Z,5.89
2019-05-02T04:10:52.558Z,5.82
2019-05-02T04:13:16.597Z,5.80
2019-05-02T04:15:43.407Z,5.80
2019-05-02T04:18:15.469Z,5.82
2019-05-02T04:20:43.559Z,5.82
2019-05-02T04:23:07.324Z,5.84
2019-05-02T04:25:35.361Z,5.88
2019-05-02T04:28:05.836Z,5.92
2019-05-02T04:30:30.721Z,6.15
2019-05-02T04:32:57.877Z,6.87
2019-05-02T04:35:28.689Z,7.41
2019-05-02T04:37:53.250Z,7.89
2019-05-02T04:40:21.372Z,8.29
2019-05-02T04:42:53.494Z,8.46
2019-05-02T04:45:26.324Z,8.72
2019-05-02T04:47:54.746Z,8.97
2019-05-02T04:50:17.864Z,9.19
2019-05-02T04:52:48.272Z,9.62
2019-05-02T04:55:19.982Z,10.10
2019-05-02T04:57:46.778Z,10.06
2019-05-02T05:00:11.515Z,9.64
2019-05-02T05:02:39.897Z,9.29
2019-05-02T05:05:04.868Z,8.98
2019-05-02T05:07:40.827Z,8.68
2019-05-02T05:10:03.066Z,8.48
2019-05-02T05:12:32.476Z,8.49
2019-05-02T05:14:57.855Z,8.49
2019-05-02T05:17:32.726Z,8.69
2019-05-02T05:19:54.251Z,8.80
2019-05-02T05:22:20.876Z,9.06
2019-05-02T05:24:53.552Z,9.26
2019-05-02T05:27:22.746Z,9.55
2019-05-02T05:29:53.318Z,9.71
2019-05-02T05:32:17.883Z,9.86
2019-05-02T05:34:44.918Z,9.98
2019-05-02T05:37:13.355Z,10.03
2019-05-02T05:39:42.946Z,9.88
2019-05-02T05:42:10.698Z,9.71
2019-05-02T05:44:37.788Z,9.63
2019-05-02T05:47:07.326Z,9.52
2019-05-02T05:49:34.250Z,9.45
2019-05-02T05:52:03.790Z,9.40
2019-05-02T05:54:33.034Z,9.46
2019-05-02T05:56:58.338Z,9.56
2019-05-02T05:59:28.063Z,9.68
2019-05-02T06:01:53.623Z,9.83
2019-05-02T06:04:23.655Z,9.96
2019-05-02T06:06:48.908Z,10.14
2019-05-02T06:09:15.585Z,10.27
2019-05-02T06:11:42.371Z,10.35
2019-05-02T06:14:08.991Z,10.44
2019-05-02T06:16:35.630Z,10.53
2019-05-02T06:19:02.837Z,10.67
2019-05-02T06:21:29.486Z,10.85
2019-05-02T06:23:56.201Z,11.02
2019-05-02T06:26:22.837Z,11.10
2019-05-02T06:28:49.461Z,11.24
2019-05-02T06:31:17.211Z,11.39
2019-05-02T06:33:44.062Z,11.45
2019-05-02T06:36:10.679Z,11.52
2019-05-02T06:38:37.318Z,11.58
2019-05-02T06:41:03.991Z,11.65
2019-05-02T06:43:30.703Z,11.73
2019-05-02T06:45:57.323Z,11.86
2019-05-02T06:48:23.978Z,11.98
2019-05-02T06:50:50.619Z,12.07
2019-05-02T06:53:17.355Z,12.24
2019-05-02T06:55:44.013Z,12.30
2019-05-02T06:58:10.631Z,12.35
2019-05-02T07:00:51.689Z,12.47
2019-05-02T07:03:10.322Z,12.58
2019-05-02T07:05:34.346Z,12.69
2019-05-02T07:08:01.014Z,12.81
2019-05-02T07:10:33.680Z,12.90
2019-05-02T07:13:09.843Z,12.97
2019-05-02T07:15:44.289Z,13.02
2019-05-02T07:18:13.593Z,13.11
2019-05-02T07:20:42.353Z,13.21
2019-05-02T07:23:10.560Z,13.28
2019-05-02T07:25:39.135Z,13.37
2019-05-02T07:28:09.367Z,13.47
2019-05-02T07:30:35.085Z,13.57
2019-05-02T07:33:02.938Z,13.66
2019-05-02T07:35:29.560Z,13.75
2019-05-02T07:37:56.202Z,13.85
2019-05-02T07:40:24.164Z,13.96
2019-05-02T07:42:50.806Z,14.09
2019-05-02T07:45:17.429Z,14.19
2019-05-02T07:47:44.058Z,14.27
2019-05-02T07:50:11.772Z,14.40
2019-05-02T07:52:41.105Z,14.55
2019-05-02T07:55:09.947Z,14.60
2019-05-02T07:57:35.782Z,14.68
2019-05-02T08:00:02.845Z,14.79
2019-05-02T08:02:29.577Z,14.87
2019-05-02T08:04:56.292Z,14.94
2019-05-02T08:07:25.709Z,15.07
2019-05-02T08:09:51.464Z,15.17
2019-05-02T08:12:18.150Z,15.24
2019-05-02T08:14:44.806Z,15.31
2019-05-02T08:17:21.014Z,15.38
2019-05-02T08:19:47.745Z,15.48
2019-05-02T08:22:14.998Z,15.56
2019-05-02T08:24:49.356Z,15.56
2019-05-02T08:27:36.738Z,15.63
2019-05-02T08:32:54.594Z,15.76
2019-05-02T08:35:21.190Z,15.90
2019-05-02T08:37:47.825Z,16.00
2019-05-02T08:43:03.680Z,16.09
2019-05-02T08:45:38.293Z,16.11
2019-05-02T08:48:11.847Z,16.14
2019-05-02T08:50:38.510Z,16.24
2019-05-02T08:53:05.191Z,16.37
2019-05-02T08:55:31.800Z,16.40
2019-05-02T08:57:58.515Z,16.52
2019-05-02T09:00:25.167Z,16.65
2019-05-02T09:02:51.888Z,16.76
2019-05-02T09:05:18.522Z,16.84
2019-05-02T09:07:45.239Z,16.80
2019-05-02T09:10:11.855Z,16.75
2019-05-02T09:12:43.679Z,16.83
2019-05-02T09:15:13.321Z,16.93
2019-05-02T09:17:44.655Z,17.00
2019-05-02T09:20:20.961Z,17.13
2019-05-02T09:22:56.619Z,17.27
2019-05-02T09:25:23.295Z,17.41
2019-05-02T09:27:49.893Z,17.46
2019-05-02T09:30:22.829Z,17.55
2019-05-02T09:32:52.205Z,17.62
2019-05-02T09:35:29.693Z,17.67
2019-05-02T09:37:56.407Z,17.76
2019-05-02T09:40:42.691Z,17.89
2019-05-02T09:43:09.477Z,18.10
2019-05-02T09:45:37.515Z,18.36
2019-05-02T09:48:12.538Z,18.36
2019-05-02T09:50:45.634Z,18.34
2019-05-02T09:53:20.056Z,18.44
2019-05-02T09:55:50.392Z,18.51
2019-05-02T09:58:24.860Z,18.64
2019-05-02T10:01:11.888Z,18.80
2019-05-02T10:03:38.662Z,18.82
2019-05-02T10:06:08.328Z,19.10
2019-05-02T10:08:43.535Z,19.09
2019-05-02T10:11:17.126Z,19.19
2019-05-02T10:13:51.730Z,19.46
2019-05-02T10:16:28.493Z,19.83
2019-05-02T10:18:55.120Z,20.14
2019-05-02T10:21:22.843Z,20.44
2019-05-02T10:24:01.692Z,20.51
2019-05-02T10:26:34.913Z,20.87
2019-05-02T10:29:02.037Z,20.74
2019-05-02T10:31:37.792Z,20.93
2019-05-02T10:34:16.269Z,21.07
2019-05-02T10:36:54.240Z,21.16
2019-05-02T10:39:23.513Z,21.24
2019-05-02T10:41:57.612Z,21.51
2019-05-02T10:44:36.209Z,21.54
2019-05-02T10:47:12.712Z,21.96
2019-05-02T10:52:29.991Z,22.22
2019-05-02T10:55:02.712Z,22.41
2019-05-02T10:57:42.059Z,22.43
2019-05-02T11:03:27.227Z,22.82
2019-05-02T11:05:58.016Z,22.74
2019-05-02T11:08:32.162Z,22.41
2019-05-02T11:11:06.913Z,22.34
2019-05-02T11:14:00.514Z,23.10
2019-05-02T11:19:52.355Z,24.10
2019-05-02T11:22:25.419Z,24.08
2019-05-02T11:24:52.457Z,24.62
2019-05-02T11:27:30.349Z,24.94
2019-05-02T11:29:56.969Z,25.13
2019-05-02T11:32:23.603Z,25.14
2019-05-02T11:34:52.277Z,24.94
2019-05-02T11:37:25.145Z,24.90
2019-05-02T11:39:57.672Z,25.05
2019-05-02T11:42:32.245Z,24.61
2019-05-02T11:45:05.153Z,24.92
2019-05-02T11:47:32.881Z,25.23
2019-05-02T11:50:06.910Z,25.10
2019-05-02T11:52:37.377Z,25.43
2019-05-02T11:55:13.086Z,25.51
2019-05-02T11:57:52.332Z,25.24
2019-05-02T12:00:26.056Z,25.25
2019-05-02T12:03:12.674Z,24.83
2019-05-02T12:08:39.341Z,25.04
2019-05-02T12:11:16.442Z,25.39
2019-05-02T12:13:51.664Z,25.80
2019-05-02T12:19:16.830Z,26.47
2019-05-02T12:21:46.228Z,26.38
2019-05-02T12:24:12.910Z,26.05
2019-05-02T12:26:41.784Z,26.48
2019-05-02T12:29:18.014Z,26.67
2019-05-02T12:31:47.315Z,26.62
2019-05-02T12:34:22.791Z,27.19
2019-05-02T12:36:49.514Z,27.74
2019-05-02T12:39:16.227Z,27.27
2019-05-02T12:41:43.125Z,26.83
2019-05-02T12:44:22.278Z,26.81
2019-05-02T12:46:56.317Z,26.55
2019-05-02T12:49:27.710Z,26.91
2019-05-02T12:52:01.801Z,26.96
2019-05-02T12:54:36.423Z,26.53
2019-05-02T12:57:03.074Z,26.36
2019-05-02T12:59:29.691Z,26.32
2019-05-02T13:04:34.666Z,25.71
2019-05-02T13:07:02.172Z,25.86
2019-05-02T13:09:41.965Z,24.92
2019-05-02T13:15:02.180Z,24.59
2019-05-02T13:17:42.814Z,24.03
2019-05-02T13:23:27.310Z,24.15
2019-05-02T13:25:59.248Z,24.86
2019-05-02T13:28:25.893Z,24.73
2019-05-02T13:31:12.093Z,24.41
2019-05-02T13:33:46.063Z,24.64
2019-05-02T13:36:32.589Z,25.27
2019-05-02T13:38:59.303Z,25.65
2019-05-02T13:41:25.953Z,26.10
2019-05-02T13:43:52.699Z,25.37
2019-05-02T13:46:22.165Z,24.67
2019-05-02T13:49:01.632Z,23.99
2019-05-02T13:51:37.994Z,24.56
2019-05-02T13:54:04.637Z,25.05
2019-05-02T13:56:52.827Z,24.53
2019-05-02T13:59:29.134Z,23.79
2019-05-02T14:01:55.785Z,23.52
2019-05-02T14:04:23.279Z,23.35
2019-05-02T14:06:57.101Z,23.45
2019-05-02T14:09:44.066Z,23.25
2019-05-02T14:12:32.053Z,23.43
2019-05-02T14:15:05.801Z,24.44
2019-05-02T14:17:32.730Z,25.46
2019-05-02T14:20:10.023Z,25.94
2019-05-02T14:22:34.271Z,24.64
2019-05-02T14:25:01.917Z,23.76
2019-05-02T14:27:39.259Z,23.54
2019-05-02T14:30:06.025Z,24.12
2019-05-02T14:32:32.976Z,25.19
2019-05-02T14:38:13.430Z,26.61
2019-05-02T14:40:52.627Z,26.63
2019-05-02T14:43:43.061Z,26.48
2019-05-02T14:46:06.394Z,26.12
2019-05-02T14:48:41.091Z,25.45
2019-05-02T14:51:02.963Z,26.23
2019-05-02T14:53:29.724Z,25.42
2019-05-02T14:56:04.442Z,25.46
2019-05-02T14:58:26.829Z,26.04
2019-05-02T15:00:54.782Z,26.35
2019-05-02T15:03:24.524Z,26.48
2019-05-02T15:05:49.977Z,25.68
2019-05-02T15:08:16.616Z,25.63
2019-05-02T15:10:52.451Z,26.36
2019-05-02T15:13:12.542Z,26.80
2019-05-02T15:15:41.588Z,27.23
2019-05-02T15:18:12.111Z,27.21
2019-05-02T15:20:39.327Z,26.81
2019-05-02T15:23:07.085Z,25.63
2019-05-02T15:25:33.526Z,25.25
2019-05-02T15:28:02.425Z,25.85
2019-05-02T15:30:28.801Z,26.40
2019-05-02T15:33:02.780Z,26.56
2019-05-02T15:35:52.717Z,25.48
2019-05-02T15:38:27.234Z,24.84
2019-05-02T15:40:51.341Z,24.73
2019-05-02T15:43:16.600Z,25.33
2019-05-02T15:45:44.140Z,25.24
2019-05-02T15:48:14.618Z,24.70
2019-05-02T15:50:52.058Z,24.06
2019-05-02T15:53:39.169Z,23.21
2019-05-02T15:56:05.974Z,22.73
2019-05-02T15:58:32.627Z,22.03
2019-05-02T16:01:17.546Z,21.92
2019-05-02T16:03:46.571Z,21.73
2019-05-02T16:06:16.588Z,21.52
2019-05-02T16:08:48.111Z,21.23
2019-05-02T16:11:16.935Z,21.01
2019-05-02T16:13:47.009Z,20.84
2019-05-02T16:16:13.151Z,20.73
2019-05-02T16:18:40.952Z,20.56
2019-05-02T16:21:12.892Z,20.49
2019-05-02T16:24:04.270Z,20.49
2019-05-02T16:26:27.638Z,20.64
2019-05-02T16:28:54.288Z,20.79
2019-05-02T16:31:22.103Z,21.43
2019-05-02T16:33:49.731Z,22.03
2019-05-02T16:36:16.598Z,22.62
2019-05-02T16:38:43.247Z,23.03
2019-05-02T16:41:11.366Z,23.33
2019-05-02T16:43:38.304Z,23.17
2019-05-02T16:46:06.641Z,23.32
2019-05-02T16:48:37.569Z,22.98
2019-05-02T16:51:02.235Z,22.74
2019-05-02T16:53:31.049Z,22.60
2019-05-02T16:55:58.351Z,22.07
2019-05-02T16:58:26.118Z,21.76
2019-05-02T17:00:52.927Z,21.37
2019-05-02T17:03:22.729Z,21.15
2019-05-02T17:05:49.592Z,20.78
2019-05-02T17:08:29.768Z,20.43
2019-05-02T17:11:01.823Z,20.17
2019-05-02T17:13:32.785Z,19.90
2019-05-02T17:15:56.908Z,19.70
2019-05-02T17:18:23.629Z,19.53
2019-05-02T17:20:53.568Z,19.44
2019-05-02T17:23:18.799Z,19.29
2019-05-02T17:25:45.464Z,19.11
2019-05-02T17:28:13.222Z,19.09
2019-05-02T17:30:42.542Z,19.03
2019-05-02T17:36:32.373Z,19.00
2019-05-02T17:38:59.328Z,18.97
2019-05-02T17:41:27.388Z,18.94
2019-05-02T17:43:57.553Z,18.99
2019-05-02T17:46:25.851Z,18.98
2019-05-02T17:48:52.686Z,19.01
2019-05-02T17:54:42.383Z,18.93
2019-05-02T17:57:09.249Z,18.85
2019-05-02T17:59:37.538Z,18.77
2019-05-02T18:02:06.504Z,18.69
2019-05-02T18:04:35.459Z,18.62
2019-05-02T18:07:01.566Z,18.52
2019-05-02T18:09:31.731Z,18.40
2019-05-02T18:11:56.855Z,18.28
2019-05-02T18:14:24.080Z,18.16
2019-05-02T18:16:51.938Z,17.97
2019-05-02T18:19:21.830Z,17.84
2019-05-02T18:21:47.999Z,17.67
2019-05-02T18:24:14.721Z,17.48
2019-05-02T18:29:51.773Z,17.13
2019-05-02T18:32:24.528Z,16.97
2019-05-02T18:34:47.139Z,16.82
2019-05-02T18:37:13.770Z,16.71
2019-05-02T18:39:44.740Z,16.65
2019-05-02T18:42:09.088Z,16.55
2019-05-02T18:44:35.707Z,16.48
2019-05-02T18:47:02.448Z,16.40
2019-05-02T18:49:29.377Z,16.28
2019-05-02T18:51:57.483Z,16.16
2019-05-02T18:54:24.240Z,16.03
2019-05-02T18:56:55.002Z,15.86
2019-05-02T18:59:20.175Z,15.71
2019-05-02T19:01:54.481Z,15.60
2019-05-02T19:04:16.650Z,15.50
2019-05-02T19:06:43.383Z,15.40
2019-05-02T19:09:10.137Z,15.31
2019-05-02T19:11:36.760Z,15.23
2019-05-02T19:14:03.746Z,15.11
2019-05-02T19:16:31.762Z,15.01
2019-05-02T19:18:58.617Z,14.94
2019-05-02T19:21:26.480Z,14.88
2019-05-02T19:23:53.895Z,14.85
2019-05-02T19:26:22.158Z,14.85
2019-05-02T19:29:17.467Z,14.86
2019-05-02T19:31:46.517Z,14.86
2019-05-02T19:34:16.709Z,14.88
2019-05-02T19:36:43.590Z,14.91
2019-05-02T19:39:10.382Z,14.93
2019-05-02T19:41:39.073Z,14.89
2019-05-02T19:44:05.686Z,14.83
2019-05-02T19:46:38.535Z,14.81
2019-05-02T19:49:02.129Z,14.81
2019-05-02T19:51:28.900Z,14.82
2019-05-02T19:53:59.372Z,14.79
2019-05-02T19:56:24.138Z,14.82
2019-05-02T19:58:52.124Z,14.92
2019-05-02T20:01:22.989Z,14.82
2019-05-02T20:03:47.642Z,14.65
2019-05-02T20:06:14.356Z,14.43
2019-05-02T20:08:41.973Z,14.18
2019-05-02T20:11:08.908Z,14.05
2019-05-02T20:13:35.608Z,13.96
2019-05-02T20:16:08.284Z,13.86
2019-05-02T20:18:42.510Z,13.83
2019-05-02T20:21:29.333Z,13.73
2019-05-02T20:23:56.088Z,13.66
2019-05-02T20:26:22.729Z,13.61
2019-05-02T20:28:49.376Z,13.55
2019-05-02T20:31:16.103Z,13.45
2019-05-02T20:33:43.125Z,13.42
2019-05-02T20:36:22.721Z,13.34
2019-05-02T20:38:55.699Z,13.27
2019-05-02T20:41:22.538Z,13.22
2019-05-02T20:44:02.516Z,13.09
2019-05-02T20:46:35.613Z,12.92
2019-05-02T20:49:02.359Z,12.70
2019-05-02T20:51:28.997Z,12.65
2019-05-02T20:53:55.709Z,12.53
2019-05-02T20:56:23.046Z,12.43
2019-05-02T20:58:57.325Z,12.33
2019-05-02T21:01:24.041Z,12.23
2019-05-02T21:03:52.105Z,12.19
2019-05-02T21:06:45.456Z,12.20
2019-05-02T21:09:32.400Z,12.22
2019-05-02T21:12:02.098Z,12.22
2019-05-02T21:14:41.588Z,12.26
2019-05-02T21:17:14.982Z,12.24
2019-05-02T21:19:41.828Z,12.20
2019-05-02T21:25:41.809Z,12.10
2019-05-02T21:28:08.546Z,12.00
2019-05-02T21:30:35.166Z,11.93
2019-05-02T21:33:02.768Z,11.86
2019-05-02T21:35:42.367Z,11.84
2019-05-02T21:38:15.570Z,11.75
2019-05-02T21:40:42.392Z,11.66
2019-05-02T21:43:09.132Z,11.64
2019-05-02T21:45:35.726Z,11.60
2019-05-02T21:48:02.431Z,11.58
2019-05-02T21:50:48.624Z,11.44
2019-05-02T21:53:34.753Z,11.34
2019-05-02T21:56:21.777Z,11.21
2019-05-02T21:59:08.047Z,11.06
2019-05-02T22:04:31.905Z,10.94
2019-05-02T22:06:58.622Z,10.92
2019-05-02T22:09:25.213Z,10.87
2019-05-02T22:11:52.237Z,10.79
2019-05-02T22:14:26.731Z,10.72
2019-05-02T22:16:53.351Z,10.62
2019-05-02T22:19:19.994Z,10.57
2019-05-02T22:21:46.615Z,10.49
2019-05-02T22:24:14.369Z,10.40
2019-05-02T22:26:48.210Z,10.40
2019-05-02T22:29:14.829Z,10.33
2019-05-02T22:31:43.037Z,10.29
2019-05-02T22:34:21.914Z,10.22
2019-05-02T22:36:58.356Z,10.20
2019-05-02T22:39:44.465Z,10.13
2019-05-02T22:42:12.836Z,10.10
2019-05-02T22:44:49.497Z,10.04
2019-05-02T22:47:16.106Z,10.00
2019-05-02T22:49:42.707Z,9.99
2019-05-02T22:52:09.454Z,9.94
2019-05-02T22:54:36.177Z,9.90
2019-05-02T22:57:02.808Z,9.88
2019-05-02T22:59:31.553Z,9.76
2019-05-02T23:02:07.566Z,9.64
2019-05-02T23:04:34.188Z,9.63
2019-05-02T23:07:02.314Z,9.56
2019-05-02T23:09:35.437Z,9.48
2019-05-02T23:12:02.933Z,9.38
2019-05-02T23:14:41.820Z,9.37
2019-05-02T23:17:15.446Z,9.32
2019-05-02T23:19:42.426Z,9.31
2019-05-02T23:22:21.810Z,9.31
2019-05-02T23:25:15.361Z,9.25
2019-05-02T23:27:53.107Z,9.27
2019-05-02T23:33:14.859Z,9.35
2019-05-02T23:35:43.004Z,9.33
2019-05-02T23:38:21.679Z,9.39
2019-05-02T23:40:54.844Z,9.41
2019-05-02T23:43:21.875Z,9.41
2019-05-02T23:45:56.612Z,9.38
2019-05-02T23:48:23.235Z,9.37
2019-05-02T23:50:49.842Z,9.32
2019-05-02T23:53:16.458Z,9.31
2019-05-02T23:55:43.072Z,9.33
2019-05-02T23:58:11.888Z,9.33
